Impacts TAF Board
For situational awareness. Not to be used for flight planning purposes.
IDs:

KPIT - Pittsburgh Intl, PA, US

Issued at 1459 UTC 21 May 2019
Updated at 1503 UTC 21 May 2019
Potential Impact None Slight Moderate High
Time<<22/04Z 22/05Z 22/06Z 22/07Z 22/08Z 22/09Z 22/10Z 22/11Z 22/12Z 22/13Z 22/14Z 22/15Z 22/16Z>>
Type PRVL PRVL PRVL PRVL PRVL PRVL PRVL PRVL PRVL PRVL PRVL PRVL PRVL
VIS >6 >6 >6 >6 >6 >6 >6 >6 >6 >6 >6 >6 >6
CIG 150 150 150 150 150 150 150 150 150 150 150 150 150
Cover BKN BKN BKN BKN BKN BKN BKN BKN BKN BKN BKN BKN BKN
FltCat VFR VFR VFR VFR VFR VFR VFR VFR VFR VFR VFR VFR VFR
WX -- -- -- -- -- -- -- -- -- -- -- -- --
WDir 40 40 40 40 40 40 40 40 40 40 40 40 40
WSpd 8 8 8 8 8 8 8 8 8 8 8 8 8
WGst -- -- -- -- -- -- -- -- -- -- -- -- --
Raw TAF
KPIT 211459Z 2115/2218 01008KT P6SM BKN200
  FM212300 04008KT P6SM BKN150
  FM221700 10008KT P6SM BKN150


METAR Board
Radar Display
Forecast Discussion
For situational awareness. Not to be used for flight planning purposes.